Time;durP1;ratioP1;P1;durP2;ratioP2;P2;SDS_P1;SDS_P2;PMS_P1;PMS_P2;Temp;Humidity;BMP_temperature;BMP_pressure;BME280_temperature;BME280_humidity;BME280_pressure;Samples;Min_cycle;Max_cycle;Signal;HPM_P1;HPM_P2
2023/04/20 00:00:41;;;;;;;26.10;15.90;;;7.70;96.40;;;;;;5309038;22;20222;-95
2023/04/20 00:03:09;;;;;;;25.97;16.63;;;7.70;99.90;;;;;;5118674;28;20203;-94
2023/04/20 00:05:36;;;;;;;27.07;15.60;;;7.60;99.90;;;;;;5123977;28;20214;-95
2023/04/20 00:08:03;;;;;;;28.90;16.90;;;7.70;99.90;;;;;;5121707;28;20188;-95
2023/04/20 00:10:31;;;;;;;28.87;16.97;;;7.70;99.90;;;;;;5126814;27;20191;-95
2023/04/20 00:12:58;;;;;;;31.20;17.17;;;7.70;99.90;;;;;;5133988;27;20221;-96
2023/04/20 00:15:25;;;;;;;29.03;16.20;;;7.70;99.90;;;;;;5139147;27;20191;-96
2023/04/20 00:17:53;;;;;;;30.53;16.43;;;7.80;99.90;;;;;;5129759;28;20184;-96
2023/04/20 00:20:21;;;;;;;27.07;16.17;;;7.90;99.90;;;;;;5125921;28;20211;-95
2023/04/20 00:22:48;;;;;;;25.37;15.17;;;7.90;99.90;;;;;;5129817;28;20201;-94
2023/04/20 00:25:15;;;;;;;27.43;16.70;;;7.90;99.90;;;;;;5136564;28;20205;-96
2023/04/20 00:27:42;;;;;;;29.50;17.53;;;7.90;99.90;;;;;;5136191;28;20290;-95
2023/04/20 00:30:10;;;;;;;26.67;16.50;;;7.80;99.90;;;;;;5136783;28;20194;-96
2023/04/20 00:32:38;;;;;;;27.60;16.40;;;7.80;99.90;;;;;;5135241;27;20212;-96
2023/04/20 00:35:07;;;;;;;27.20;15.93;;;7.70;99.90;;;;;;5149276;27;20194;-95
2023/04/20 00:37:34;;;;;;;29.57;16.60;;;7.70;99.90;;;;;;5107770;28;20206;-95
2023/04/20 00:40:01;;;;;;;29.50;17.53;;;7.70;99.90;;;;;;5117421;28;20264;-96
2023/04/20 00:42:28;;;;;;;30.53;16.80;;;7.60;99.90;;;;;;5126768;28;20187;-96
2023/04/20 00:44:56;;;;;;;27.57;17.60;;;7.70;99.90;;;;;;5136948;28;20196;-95
2023/04/20 00:47:23;;;;;;;30.90;18.83;;;7.60;99.90;;;;;;5136141;28;20195;-96
2023/04/20 00:49:51;;;;;;;27.97;16.13;;;7.60;99.90;;;;;;5134618;28;20191;-95
2023/04/20 00:52:21;;;;;;;33.67;18.00;;;7.60;99.90;;;;;;5112337;28;20264;-95
2023/04/20 00:54:48;;;;;;;30.87;17.50;;;7.60;99.90;;;;;;5117726;28;20199;-95
2023/04/20 00:57:18;;;;;;;28.93;17.53;;;7.60;99.90;;;;;;5119044;28;20191;-96
2023/04/20 00:59:45;;;;;;;29.87;19.07;;;7.60;99.90;;;;;;5115314;28;20218;-96
2023/04/20 01:02:13;;;;;;;31.80;18.10;;;7.60;99.90;;;;;;5120575;28;20198;-94
2023/04/20 01:04:40;;;;;;;31.63;17.80;;;7.60;99.90;;;;;;5121473;28;20248;-96
2023/04/20 01:07:07;;;;;;;34.20;18.53;;;7.60;99.90;;;;;;5126776;28;20282;-95
2023/04/20 01:09:38;;;;;;;32.63;17.97;;;7.60;99.90;;;;;;5125965;28;20195;-95
2023/04/20 01:12:06;;;;;;;35.47;19.80;;;7.60;99.90;;;;;;5125254;28;20198;-96
2023/04/20 01:14:33;;;;;;;33.37;19.00;;;7.60;99.90;;;;;;5122523;28;20205;-96
2023/04/20 01:17:03;;;;;;;31.90;18.53;;;7.60;1.00;;;;;;5104531;28;20211;-94
2023/04/20 01:19:30;;;;;;;33.47;18.17;;;7.60;1.00;;;;;;5101854;28;20196;-94
2023/04/20 01:21:57;;;;;;;31.13;18.60;;;7.70;1.00;;;;;;5116107;28;20660;-95
2023/04/20 01:24:26;;;;;;;32.63;18.03;;;7.70;1.00;;;;;;5126802;27;20193;-94
2023/04/20 01:26:53;;;;;;;36.13;18.60;;;7.70;1.00;;;;;;5106589;28;20195;-94
2023/04/20 01:29:20;;;;;;;29.00;17.27;;;7.70;99.90;;;;;;5122451;28;20274;-94
2023/04/20 01:31:47;;;;;;;38.10;18.87;;;7.70;99.90;;;;;;5112065;28;20187;-95
2023/04/20 01:34:16;;;;;;;32.63;18.67;;;7.60;99.90;;;;;;5105693;28;20218;-94
2023/04/20 01:36:43;;;;;;;32.07;18.87;;;7.60;1.00;;;;;;5097734;28;20222;-95
2023/04/20 01:39:13;;;;;;;32.40;18.27;;;7.60;1.00;;;;;;5110895;28;20205;-96
2023/04/20 01:41:42;;;;;;;36.40;19.10;;;7.60;1.00;;;;;;5117609;28;20205;-94
2023/04/20 01:44:09;;;;;;;34.90;18.87;;;7.60;1.00;;;;;;5118504;28;20194;-96
2023/04/20 01:46:38;;;;;;;30.57;19.17;;;7.60;1.00;;;;;;5120076;28;20295;-95
2023/04/20 01:49:05;;;;;;;33.23;17.87;;;7.60;1.00;;;;;;5122403;28;20195;-95
2023/04/20 01:51:33;;;;;;;27.50;16.83;;;7.60;1.00;;;;;;5120950;28;20217;-95
2023/04/20 01:54:00;;;;;;;34.23;18.53;;;7.60;1.00;;;;;;5122572;28;20280;-95
2023/04/20 01:56:27;;;;;;;31.20;19.20;;;7.60;1.00;;;;;;5122647;28;20244;-95
2023/04/20 01:58:56;;;;;;;33.07;18.97;;;7.60;1.00;;;;;;5127023;28;20191;-95
2023/04/20 02:01:23;;;;;;;34.03;21.03;;;7.60;1.00;;;;;;5129087;28;20566;-96
2023/04/20 02:03:50;;;;;;;36.60;19.90;;;7.60;1.00;;;;;;5120534;28;20192;-95
2023/04/20 02:06:17;;;;;;;37.87;20.90;;;7.60;1.00;;;;;;5109779;28;20190;-96
2023/04/20 02:08:44;;;;;;;38.57;20.30;;;7.60;1.00;;;;;;5120444;28;20196;-96
2023/04/20 02:11:11;;;;;;;34.30;18.23;;;7.70;1.00;;;;;;5117938;28;20191;-94
2023/04/20 02:13:38;;;;;;;33.90;18.67;;;7.70;1.00;;;;;;5111205;28;20233;-96
2023/04/20 02:16:07;;;;;;;35.67;19.47;;;7.70;1.00;;;;;;5122332;28;20602;-95
2023/04/20 02:18:34;;;;;;;36.27;18.67;;;7.70;1.00;;;;;;5120113;28;20651;-95
2023/04/20 02:21:02;;;;;;;34.03;18.20;;;7.70;1.00;;;;;;5125653;28;20227;-95
2023/04/20 02:23:29;;;;;;;35.20;18.70;;;7.70;1.00;;;;;;5116836;28;20254;-95
2023/04/20 02:25:56;;;;;;;31.80;19.33;;;7.80;1.00;;;;;;5104470;28;20259;-95
2023/04/20 02:28:23;;;;;;;32.47;18.80;;;7.80;1.00;;;;;;5098427;28;20208;-95
2023/04/20 02:30:50;;;;;;;32.20;18.13;;;7.80;1.00;;;;;;5107164;28;20572;-95
2023/04/20 02:33:20;;;;;;;30.47;18.53;;;7.90;1.00;;;;;;5113368;28;20212;-95
2023/04/20 02:35:47;;;;;;;32.90;18.17;;;7.80;1.00;;;;;;5095754;28;20227;-95
2023/04/20 02:38:14;;;;;;;33.67;18.93;;;7.90;1.00;;;;;;5114388;28;20585;-95
2023/04/20 02:40:41;;;;;;;35.77;18.90;;;7.90;1.00;;;;;;5118825;28;20214;-95
2023/04/20 02:43:08;;;;;;;38.93;19.37;;;7.90;1.00;;;;;;5120455;28;20196;-95
2023/04/20 02:45:35;;;;;;;33.60;18.63;;;7.90;1.00;;;;;;5118397;28;20645;-95
2023/04/20 02:48:02;;;;;;;34.00;17.97;;;7.90;1.00;;;;;;5118683;28;20223;-95
2023/04/20 02:50:31;;;;;;;31.43;17.97;;;7.90;1.00;;;;;;5118277;28;20218;-95
2023/04/20 02:52:58;;;;;;;36.97;18.90;;;7.80;1.00;;;;;;5099576;28;20219;-95
2023/04/20 02:55:26;;;;;;;33.20;18.53;;;7.90;1.00;;;;;;5119057;28;20226;-95
2023/04/20 02:57:53;;;;;;;32.97;18.97;;;7.80;1.00;;;;;;5128310;28;20196;-95
2023/04/20 03:00:20;;;;;;;32.10;18.60;;;7.80;1.00;;;;;;5124195;28;20219;-95
2023/04/20 03:02:47;;;;;;;33.80;17.90;;;7.80;1.00;;;;;;5123382;28;20188;-94
2023/04/20 03:05:14;;;;;;;34.37;18.90;;;7.80;1.00;;;;;;5126013;28;20190;-94
2023/04/20 03:07:43;;;;;;;27.87;18.53;;;7.80;1.00;;;;;;5124529;28;20650;-95
2023/04/20 03:10:11;;;;;;;34.80;18.43;;;7.80;1.00;;;;;;5124842;28;20681;-95
2023/04/20 03:12:38;;;;;;;29.83;17.77;;;7.80;1.00;;;;;;5125679;28;20217;-95
2023/04/20 03:15:06;;;;;;;35.97;18.50;;;7.80;1.00;;;;;;5124866;27;20243;-95
2023/04/20 03:17:33;;;;;;;28.30;16.43;;;7.80;1.00;;;;;;5123659;27;20274;-95
2023/04/20 03:20:00;;;;;;;33.03;18.43;;;7.70;1.00;;;;;;5139893;27;20195;-94
2023/04/20 03:22:27;;;;;;;32.97;17.97;;;7.70;1.00;;;;;;5116447;27;20199;-95
2023/04/20 03:24:56;;;;;;;31.13;18.30;;;7.70;1.00;;;;;;5118847;28;20583;-95
2023/04/20 03:27:23;;;;;;;33.50;18.77;;;7.70;1.00;;;;;;5118061;28;20661;-95
2023/04/20 03:29:51;;;;;;;36.40;18.93;;;7.60;1.00;;;;;;5119014;28;20192;-96
2023/04/20 03:32:18;;;;;;;34.50;18.10;;;7.70;1.00;;;;;;5120538;28;20200;-95
2023/04/20 03:34:45;;;;;;;36.87;19.33;;;7.70;1.00;;;;;;5100701;28;20220;-95
2023/04/20 03:37:12;;;;;;;38.93;19.23;;;7.60;1.00;;;;;;5132293;27;20652;-94
2023/04/20 03:39:39;;;;;;;37.60;18.97;;;7.60;1.00;;;;;;5119716;27;20262;-94
2023/04/20 03:42:07;;;;;;;39.40;19.53;;;7.60;1.00;;;;;;5103902;28;20195;-94
2023/04/20 03:44:34;;;;;;;33.43;18.67;;;7.70;1.00;;;;;;5116857;28;20192;-95
2023/04/20 03:47:01;;;;;;;33.77;18.60;;;7.70;1.00;;;;;;5112142;28;20671;-94
2023/04/20 03:49:30;;;;;;;38.93;19.70;;;7.70;1.00;;;;;;5112668;28;20202;-94
2023/04/20 03:51:56;;;;;;;37.13;20.10;;;7.70;1.00;;;;;;5116691;28;20244;-94
2023/04/20 03:54:24;;;;;;;35.17;19.03;;;7.70;1.00;;;;;;5116113;28;20211;-93
2023/04/20 03:56:51;;;;;;;37.03;19.43;;;7.60;1.00;;;;;;5116607;28;20195;-93
2023/04/20 03:59:19;;;;;;;36.30;18.90;;;7.60;1.00;;;;;;5116504;28;20227;-94
2023/04/20 04:01:46;;;;;;;38.97;20.80;;;7.60;1.00;;;;;;5116132;28;20273;-94
2023/04/20 04:04:13;;;;;;;34.17;18.37;;;7.60;1.00;;;;;;5103221;27;20196;-94
2023/04/20 04:06:40;;;;;;;35.27;19.63;;;7.60;1.00;;;;;;5114095;28;20198;-94
2023/04/20 04:09:08;;;;;;;35.63;18.70;;;7.60;1.00;;;;;;5116170;28;20249;-94
2023/04/20 04:11:35;;;;;;;39.07;19.93;;;7.60;1.00;;;;;;5115925;28;20200;-94
2023/04/20 04:14:04;;;;;;;38.33;20.13;;;7.60;1.00;;;;;;5116382;28;20212;-96
2023/04/20 04:16:32;;;;;;;38.83;19.77;;;7.60;1.00;;;;;;5116163;28;20199;-95
2023/04/20 04:18:59;;;;;;;37.97;19.43;;;7.70;1.00;;;;;;5115958;28;20297;-96
2023/04/20 04:21:27;;;;;;;37.53;19.37;;;7.70;1.00;;;;;;5115811;28;20219;-95
2023/04/20 04:23:54;;;;;;;36.63;19.70;;;7.80;1.00;;;;;;5116282;28;20227;-95
2023/04/20 04:26:23;;;;;;;35.20;18.30;;;7.90;1.00;;;;;;5115309;28;20191;-94
2023/04/20 04:28:50;;;;;;;31.53;18.33;;;8.00;1.00;;;;;;5115953;28;20203;-95
2023/04/20 04:31:18;;;;;;;36.10;18.47;;;8.10;1.00;;;;;;5132732;27;20199;-94
2023/04/20 04:33:46;;;;;;;36.97;19.37;;;8.30;1.00;;;;;;5118381;27;20333;-94
2023/04/20 04:36:14;;;;;;;36.03;19.53;;;8.30;1.00;;;;;;5115907;28;20197;-95
2023/04/20 04:38:43;;;;;;;33.60;18.87;;;8.40;1.00;;;;;;5116060;28;20278;-94
2023/04/20 04:41:11;;;;;;;34.30;19.83;;;8.50;1.00;;;;;;5116802;28;20279;-95
2023/04/20 04:43:38;;;;;;;34.50;19.40;;;8.60;1.00;;;;;;5095843;28;20194;-95
2023/04/20 04:46:09;;;;;;;32.57;19.07;;;8.80;1.00;;;;;;5095529;28;20189;-95
2023/04/20 04:48:39;;;;;;;31.20;19.03;;;8.90;1.00;;;;;;5103805;28;20193;-95
2023/04/20 04:51:07;;;;;;;31.23;19.30;;;9.10;1.00;;;;;;5102742;28;20259;-95
2023/04/20 04:53:35;;;;;;;29.93;18.27;;;9.20;1.00;;;;;;5116024;28;20233;-95
2023/04/20 04:56:02;;;;;;;32.70;18.73;;;9.20;1.00;;;;;;5102178;28;20199;-95
2023/04/20 04:58:29;;;;;;;29.27;17.37;;;9.20;1.00;;;;;;5111628;28;20210;-95
2023/04/20 05:00:56;;;;;;;37.83;19.07;;;9.20;99.90;;;;;;5116832;28;20244;-94
2023/04/20 05:03:23;;;;;;;32.80;18.53;;;9.10;99.90;;;;;;5120562;28;20552;-95
2023/04/20 05:05:50;;;;;;;29.23;17.23;;;9.00;99.90;;;;;;5118028;28;20202;-95
2023/04/20 05:08:19;;;;;;;32.17;17.67;;;8.90;99.90;;;;;;5116033;28;20208;-93
2023/04/20 05:10:46;;;;;;;33.80;17.23;;;8.80;99.90;;;;;;5101066;28;20194;-93
2023/04/20 05:13:13;;;;;;;29.87;17.40;;;8.70;1.00;;;;;;5114183;28;20281;-93
2023/04/20 06:05:34;;;;;;;21.90;15.97;;;11.10;99.90;;;;;;5601419;23;20251;-96
2023/04/20 06:08:01;;;;;;;23.07;15.73;;;11.20;99.90;;;;;;5003740;28;20634;-96
2023/04/20 06:10:31;;;;;;;24.03;15.23;;;11.20;99.90;;;;;;4995444;28;20730;-96
2023/04/20 06:12:57;;;;;;;24.90;16.13;;;11.30;99.90;;;;;;4984706;28;20715;-96
2023/04/20 06:15:24;;;;;;;22.43;14.93;;;11.30;99.90;;;;;;4994121;28;20224;-95
2023/04/20 06:17:51;;;;;;;23.63;15.30;;;11.20;99.90;;;;;;4996593;28;20203;-96
2023/04/20 06:20:19;;;;;;;23.07;15.90;;;11.20;99.90;;;;;;5007767;28;20632;-96
2023/04/20 06:22:47;;;;;;;22.50;15.73;;;11.10;99.90;;;;;;5002401;28;20287;-95
2023/04/20 06:25:15;;;;;;;21.97;15.60;;;11.00;99.90;;;;;;4993855;28;20201;-95
2023/04/20 06:27:41;;;;;;;24.17;15.70;;;11.00;99.90;;;;;;4984806;28;20658;-96
2023/04/20 06:30:09;;;;;;;22.17;16.63;;;10.90;62.00;;;;;;4990952;28;20204;-95
2023/04/20 06:32:36;;;;;;;22.10;16.23;;;10.90;39.40;;;;;;4983104;28;21174;-95
2023/04/20 06:35:04;;;;;;;23.80;16.17;;;10.90;99.60;;;;;;4985386;28;20248;-96
2023/04/20 06:37:30;;;;;;;19.90;15.57;;;11.00;99.90;;;;;;4990381;28;20199;-96
2023/04/20 06:39:59;;;;;;;24.47;16.93;;;11.10;99.90;;;;;;4993469;28;20301;-96
2023/04/20 06:42:26;;;;;;;21.80;16.57;;;11.30;99.90;;;;;;5002904;28;20238;-96
2023/04/20 06:44:52;;;;;;;23.70;16.33;;;11.50;41.80;;;;;;4997969;28;20201;-96
2023/04/20 06:47:19;;;;;;;20.50;15.50;;;11.50;1.00;;;;;;4997763;28;20202;-96
2023/04/20 06:49:46;;;;;;;20.20;15.73;;;11.40;1.00;;;;;;4992414;28;20194;-96
2023/04/20 06:52:13;;;;;;;21.37;16.23;;;11.40;1.00;;;;;;5001466;28;20580;-96
2023/04/20 06:54:40;;;;;;;21.00;16.00;;;11.30;1.00;;;;;;4998373;28;20227;-96
2023/04/20 06:57:08;;;;;;;21.67;15.70;;;11.20;1.00;;;;;;4990628;28;20293;-96
2023/04/20 06:59:35;;;;;;;20.53;15.53;;;11.10;1.00;;;;;;4990357;28;20230;-96
2023/04/20 07:02:01;;;;;;;21.63;15.87;;;11.10;1.00;;;;;;5003160;28;20221;-96
2023/04/20 07:04:28;;;;;;;21.83;16.03;;;11.20;1.00;;;;;;4998081;28;20629;-94
2023/04/20 07:06:55;;;;;;;21.60;16.53;;;11.20;28.70;;;;;;5000224;28;20222;-96
2023/04/20 07:09:23;;;;;;;21.60;15.63;;;11.30;99.90;;;;;;4980958;28;20306;-96
2023/04/20 07:11:50;;;;;;;20.03;14.87;;;11.50;91.90;;;;;;4992330;28;20198;-96
2023/04/20 07:14:19;;;;;;;19.67;15.90;;;11.60;30.50;;;;;;4992885;28;20302;-96
2023/04/20 07:16:46;;;;;;;20.87;14.77;;;11.70;1.00;;;;;;5006078;28;20282;-96
2023/04/20 07:19:13;;;;;;;19.73;14.57;;;11.80;1.00;;;;;;4994066;28;20285;-96
2023/04/20 07:21:39;;;;;;;18.20;14.10;;;11.80;1.00;;;;;;5002173;28;20230;-96
2023/04/20 07:24:07;;;;;;;17.17;14.03;;;11.90;1.00;;;;;;5005909;28;20229;-96
2023/04/20 07:26:33;;;;;;;19.43;14.20;;;12.10;1.00;;;;;;5002559;28;20225;-96
2023/04/20 07:29:00;;;;;;;16.93;13.17;;;12.20;1.00;;;;;;5000128;28;20265;-96
2023/04/20 07:31:29;;;;;;;17.87;13.57;;;12.40;1.00;;;;;;4993744;28;20201;-96
2023/04/20 07:33:56;;;;;;;17.13;13.80;;;12.60;1.00;;;;;;5019115;28;20209;-96
2023/04/20 07:36:23;;;;;;;16.67;13.50;;;12.80;1.00;;;;;;5021546;28;20198;-96
2023/04/20 07:38:50;;;;;;;17.77;13.17;;;13.10;1.00;;;;;;5025505;28;20208;-96
2023/04/20 07:41:17;;;;;;;20.20;13.07;;;13.40;1.00;;;;;;5007469;28;20204;-96
2023/04/20 07:43:44;;;;;;;14.73;12.30;;;13.80;1.00;;;;;;5004806;28;20208;-96
2023/04/20 07:46:19;;;;;;;15.53;12.47;;;14.20;99.90;;;;;;5004135;28;20261;-96
2023/04/20 07:48:47;;;;;;;14.03;11.17;;;14.50;99.90;;;;;;5008845;28;20233;-96
2023/04/20 07:51:14;;;;;;;15.80;11.73;;;14.80;99.90;;;;;;4997753;28;20218;-96
2023/04/20 07:53:42;;;;;;;14.82;11.20;;;15.10;1.00;;;;;;5013884;28;20193;-96
2023/04/20 07:56:09;;;;;;;16.90;11.05;;;15.40;1.00;;;;;;4995752;28;20690;-96
2023/04/20 07:58:39;;;;;;;13.93;11.00;;;15.60;1.00;;;;;;5009892;28;20210;-96
2023/04/20 08:01:06;;;;;;;14.57;11.02;;;15.80;99.90;;;;;;4989241;28;20213;-96
2023/04/20 08:03:34;;;;;;;14.55;11.07;;;15.80;99.90;;;;;;5003577;28;20284;-96
2023/04/20 08:06:02;;;;;;;15.02;10.85;;;15.80;1.00;;;;;;4997417;28;20321;-96
2023/04/20 08:08:29;;;;;;;17.23;11.00;;;15.60;1.00;;;;;;4994755;28;20210;-96
2023/04/20 08:10:57;;;;;;;13.55;10.63;;;15.60;1.00;;;;;;4984928;28;20239;-96
2023/04/20 08:13:24;;;;;;;15.75;11.38;;;15.60;1.00;;;;;;5006999;28;20205;-96
2023/04/20 08:15:51;;;;;;;14.57;11.15;;;15.70;1.00;;;;;;4998052;28;20220;-96
2023/04/20 08:18:18;;;;;;;12.55;10.38;;;15.90;1.00;;;;;;5011555;28;20202;-95
2023/04/20 08:20:45;;;;;;;14.07;10.52;;;16.00;1.00;;;;;;4998624;28;20197;-96
2023/04/20 08:23:13;;;;;;;13.07;10.60;;;16.10;1.00;;;;;;4986607;28;20205;-96
2023/04/20 08:25:40;;;;;;;14.02;11.05;;;16.20;99.90;;;;;;4996128;28;20220;-96
2023/04/20 08:28:07;;;;;;;15.32;10.85;;;16.30;99.90;;;;;;5015078;28;20197;-96
2023/04/20 08:30:34;;;;;;;14.10;11.18;;;16.30;99.90;;;;;;4999763;28;20281;-96
2023/04/20 08:33:01;;;;;;;16.80;11.32;;;16.50;99.90;;;;;;4998518;28;20609;-96
2023/04/20 08:35:28;;;;;;;14.68;11.38;;;16.70;38.50;;;;;;5005418;28;20687;-96
2023/04/20 08:37:54;;;;;;;13.02;10.40;;;16.90;1.00;;;;;;5090669;23;20244;-96
2023/04/20 08:40:23;;;;;;;14.13;10.38;;;17.00;1.00;;;;;;5077289;28;20184;-96
2023/04/20 08:42:53;;;;;;;13.75;10.50;;;17.10;94.90;;;;;;5281229;22;20783;-96
2023/04/20 08:45:20;;;;;;;11.68;10.32;;;17.20;1.00;;;;;;5266898;22;20225;-96
2023/04/20 08:47:48;;;;;;;14.70;10.32;;;17.30;1.00;;;;;;5222521;22;20229;-96
2023/04/20 08:50:16;;;;;;;14.80;10.23;;;17.50;1.00;;;;;;5111257;23;20197;-96
2023/04/20 08:52:43;;;;;;;12.35;9.73;;;17.80;54.70;;;;;;5160239;22;20883;-95
2023/04/20 08:55:10;;;;;;;13.18;10.02;;;18.00;99.90;;;;;;5116248;23;20249;-96
2023/04/20 08:57:38;;;;;;;13.55;9.85;;;18.10;99.90;;;;;;5073806;28;20220;-96
2023/04/20 09:00:09;;;;;;;11.77;10.02;;;18.30;1.00;;;;;;5057760;28;20229;-96
2023/04/20 09:02:36;;;;;;;15.18;10.00;;;18.40;1.00;;;;;;5053474;28;20197;-96
2023/04/20 09:05:04;;;;;;;13.57;10.40;;;18.50;1.00;;;;;;5062373;28;20204;-96
2023/04/20 09:07:31;;;;;;;11.43;9.20;;;18.40;1.00;;;;;;5059278;28;20200;-96
2023/04/20 09:10:00;;;;;;;12.65;9.60;;;18.20;1.00;;;;;;5059772;28;20196;-96
2023/04/20 09:12:27;;;;;;;13.00;9.43;;;18.20;1.00;;;;;;5044590;28;20262;-96
2023/04/20 09:14:56;;;;;;;10.98;9.32;;;18.20;1.00;;;;;;5063639;28;20245;-96
2023/04/20 09:17:33;;;;;;;11.25;9.13;;;18.30;1.00;;;;;;5052608;28;20220;-96
2023/04/20 09:20:00;;;;;;;12.60;9.68;;;18.30;1.00;;;;;;5052307;28;20682;-96
2023/04/20 09:22:31;;;;;;;11.65;9.55;;;18.30;1.00;;;;;;5043098;28;20288;-96
2023/04/20 09:24:58;;;;;;;10.02;8.80;;;18.40;1.00;;;;;;5046545;28;20200;-96
2023/04/20 09:27:25;;;;;;;11.93;9.38;;;18.50;99.90;;;;;;5064280;28;20228;-96
2023/04/20 09:29:59;;;;;;;10.43;8.27;;;18.60;68.30;;;;;;5064759;28;20193;-96
2023/04/20 09:32:27;;;;;;;11.45;9.00;;;18.50;60.00;;;;;;5053062;28;20205;-94
2023/04/20 09:34:54;;;;;;;13.18;9.45;;;18.30;1.00;;;;;;5034184;28;20690;-95
2023/04/20 09:37:22;;;;;;;11.93;9.02;;;18.00;1.00;;;;;;5045785;28;20790;-95
2023/04/20 09:39:49;;;;;;;9.82;7.88;;;17.70;20.50;;;;;;5049302;28;20201;-94
2023/04/20 09:42:17;;;;;;;10.98;8.77;;;17.50;1.00;;;;;;5058871;28;20650;-95
2023/04/20 09:44:44;;;;;;;12.05;9.18;;;17.30;1.00;;;;;;5046923;28;20209;-95
2023/04/20 09:47:18;;;;;;;10.48;8.82;;;17.20;1.00;;;;;;5056437;28;20275;-93
2023/04/20 09:49:45;;;;;;;14.40;9.00;;;17.20;99.90;;;;;;5050651;28;20196;-95
2023/04/20 09:52:15;;;;;;;12.85;8.82;;;17.40;99.90;;;;;;5048479;28;20203;-95
2023/04/20 09:54:43;;;;;;;9.52;8.27;;;17.70;99.90;;;;;;5049381;28;20315;-95
2023/04/20 09:57:11;;;;;;;11.70;8.80;;;18.10;1.00;;;;;;5041135;28;20201;-95
2023/04/20 09:59:40;;;;;;;12.13;8.77;;;18.30;1.00;;;;;;5043853;28;20666;-95
2023/04/20 10:02:09;;;;;;;9.80;8.65;;;18.40;99.90;;;;;;5049230;28;20254;-95
2023/04/20 10:04:37;;;;;;;13.13;8.77;;;18.50;99.90;;;;;;5041438;28;20201;-95
2023/04/20 10:07:05;;;;;;;10.55;8.95;;;18.70;99.90;;;;;;5048176;28;20204;-95
2023/04/20 10:09:33;;;;;;;12.13;8.52;;;18.80;99.90;;;;;;5042016;28;20224;-95
2023/04/20 10:12:06;;;;;;;9.85;8.00;;;18.80;33.30;;;;;;5041022;28;20201;-94
2023/04/20 10:14:34;;;;;;;12.30;8.48;;;18.70;1.00;;;;;;5041911;28;20203;-95
2023/04/20 10:17:03;;;;;;;12.38;8.77;;;18.60;1.00;;;;;;5049069;28;20224;-96
2023/04/20 10:19:42;;;;;;;9.55;8.43;;;18.60;1.00;;;;;;5052801;28;20197;-96
2023/04/20 10:22:10;;;;;;;12.43;7.93;;;18.60;1.00;;;;;;5052322;28;20204;-94
2023/04/20 10:24:37;;;;;;;9.50;8.00;;;18.60;1.00;;;;;;5055782;28;20203;-94
2023/04/20 10:27:15;;;;;;;10.35;8.10;;;18.60;1.00;;;;;;5058541;28;20193;-95
2023/04/20 10:29:42;;;;;;;11.95;8.65;;;18.60;99.90;;;;;;5043402;28;20212;-96
2023/04/20 10:32:09;;;;;;;11.82;8.40;;;18.80;99.90;;;;;;5045815;28;20646;-95
2023/04/20 10:34:36;;;;;;;11.48;7.70;;;19.10;99.90;;;;;;5052762;28;20192;-96
2023/04/20 10:37:12;;;;;;;10.32;8.00;;;19.20;1.00;;;;;;5048515;28;20229;-95
2023/04/20 10:39:46;;;;;;;12.25;8.20;;;19.20;1.00;;;;;;5042843;28;20208;-95
2023/04/20 10:42:13;;;;;;;11.45;8.50;;;19.10;1.00;;;;;;5039156;28;20213;-95
2023/04/20 10:44:48;;;;;;;10.85;7.88;;;19.10;1.00;;;;;;5053257;28;20201;-95
2023/04/20 10:47:14;;;;;;;11.18;8.25;;;18.80;1.00;;;;;;5037176;28;20771;-96
2023/04/20 10:49:42;;;;;;;10.63;8.60;;;18.50;1.00;;;;;;5037244;28;20203;-96
2023/04/20 10:52:09;;;;;;;11.80;8.88;;;18.30;1.00;;;;;;5038820;28;20209;-95
2023/04/20 10:54:39;;;;;;;12.05;8.45;;;18.30;1.00;;;;;;5036824;28;20202;-95
2023/04/20 10:57:08;;;;;;;12.98;8.02;;;18.30;1.00;;;;;;5041088;28;20251;-94
2023/04/20 10:59:36;;;;;;;11.85;8.35;;;18.50;1.00;;;;;;5050955;28;20280;-95
2023/04/20 11:02:09;;;;;;;10.98;8.70;;;18.60;1.00;;;;;;5050171;28;20202;-96
2023/04/20 11:04:36;;;;;;;10.65;8.45;;;18.70;1.00;;;;;;5047250;28;20276;-96
2023/04/20 11:07:07;;;;;;;12.60;8.80;;;19.00;1.00;;;;;;5052087;28;20228;-96
2023/04/20 11:09:38;;;;;;;11.52;8.48;;;19.30;1.00;;;;;;5092747;22;20237;-96
2023/04/20 11:12:10;;;;;;;12.05;8.45;;;19.80;1.00;;;;;;5026572;28;20257;-96
2023/04/20 11:14:53;;;;;;;11.50;8.35;;;20.10;1.00;;;;;;5018377;28;20198;-96
2023/04/20 11:17:20;;;;;;;11.77;8.52;;;20.10;1.00;;;;;;5013885;28;20242;-96
2023/04/20 11:19:47;;;;;;;11.45;8.65;;;19.90;99.90;;;;;;5019278;28;20228;-96
2023/04/20 11:22:22;;;;;;;11.00;8.48;;;19.60;99.90;;;;;;5017597;28;20280;-95
2023/04/20 11:24:50;;;;;;;10.20;8.82;;;19.20;99.90;;;;;;5011364;28;20206;-95
2023/04/20 11:27:23;;;;;;;11.05;8.48;;;18.90;99.90;;;;;;5019675;28;20198;-96
2023/04/20 11:29:57;;;;;;;10.25;7.97;;;18.80;1.00;;;;;;5005865;28;20222;-95
2023/04/20 11:32:25;;;;;;;11.13;8.50;;;18.70;99.90;;;;;;5019520;28;20258;-95
2023/04/20 11:34:59;;;;;;;10.20;9.00;;;18.60;1.00;;;;;;5012426;28;20202;-95
2023/04/20 11:37:27;;;;;;;11.75;8.50;;;18.50;1.00;;;;;;5009649;28;20221;-96
2023/04/20 11:40:05;;;;;;;9.80;8.07;;;18.30;1.00;;;;;;5017970;28;20206;-96
2023/04/20 11:42:32;;;;;;;11.00;8.07;;;18.20;1.00;;;;;;5006772;28;20206;-96
2023/04/20 11:44:59;;;;;;;11.93;8.98;;;18.00;1.00;;;;;;5017143;28;20194;-96
2023/04/20 11:47:26;;;;;;;14.85;9.68;;;17.90;1.00;;;;;;5014854;28;20706;-96
2023/04/20 11:49:53;;;;;;;9.73;8.70;;;17.70;1.00;;;;;;5025734;28;20232;-96
2023/04/20 11:52:20;;;;;;;13.68;8.38;;;17.60;1.00;;;;;;5023580;28;20202;-95
2023/04/20 11:54:48;;;;;;;11.80;7.90;;;17.60;1.00;;;;;;5019126;28;20237;-95
2023/04/20 11:57:17;;;;;;;12.07;8.50;;;17.70;1.00;;;;;;5014229;28;20218;-96
2023/04/20 11:59:46;;;;;;;13.95;8.00;;;17.60;1.00;;;;;;5035807;28;20554;-96
2023/04/20 12:02:15;;;;;;;11.63;8.23;;;17.60;1.00;;;;;;5034196;28;20260;-96
2023/04/20 12:04:43;;;;;;;11.55;7.40;;;17.70;1.00;;;;;;5028522;28;20206;-96
2023/04/20 12:07:12;;;;;;;10.30;7.72;;;17.70;1.00;;;;;;5030157;28;20200;-96
2023/04/20 12:09:40;;;;;;;11.38;8.00;;;17.60;1.00;;;;;;5152753;22;20264;-96
2023/04/20 12:12:08;;;;;;;7.78;6.72;;;17.60;1.00;;;;;;5053494;28;20283;-96
2023/04/20 12:14:39;;;;;;;9.88;7.97;;;17.60;1.00;;;;;;5054629;28;20232;-95
2023/04/20 12:17:06;;;;;;;7.78;5.93;;;17.60;1.00;;;;;;5051254;28;20593;-96
2023/04/20 12:19:33;;;;;;;10.77;6.70;;;17.70;1.00;;;;;;5059577;28;20275;-96
2023/04/20 12:22:00;;;;;;;8.85;6.20;;;17.80;1.00;;;;;;5052197;28;20178;-96
2023/04/20 12:24:27;;;;;;;8.32;6.15;;;17.80;1.00;;;;;;5059218;28;20238;-96
2023/04/20 12:26:54;;;;;;;7.88;5.55;;;17.90;1.00;;;;;;5312224;22;20252;-96
2023/04/20 12:29:21;;;;;;;9.48;6.13;;;18.00;1.00;;;;;;5389553;22;20237;-96
2023/04/20 12:31:49;;;;;;;11.23;5.93;;;18.10;1.00;;;;;;5034097;28;20293;-96
2023/04/20 12:34:16;;;;;;;9.18;5.60;;;18.20;1.00;;;;;;5078356;23;20217;-96
2023/04/20 12:36:43;;;;;;;13.95;5.50;;;18.40;99.90;;;;;;5033421;28;20228;-96
2023/04/20 12:52:08;;;;;;;8.02;4.10;;;19.50;99.90;;;;;;5621566;22;20233;-96
2023/04/20 12:54:35;;;;;;;5.45;3.65;;;19.40;74.40;;;;;;5032694;28;20194;-94
2023/04/20 12:57:02;;;;;;;5.97;3.63;;;19.20;1.00;;;;;;5037295;28;20226;-94
2023/04/20 13:01:57;;;;;;;6.35;3.90;;;18.80;1.00;;;;;;5136769;22;20810;-95
2023/04/20 13:09:30;;;;;;;6.68;3.70;;;18.20;1.00;;;;;;5559063;22;21181;-95
2023/04/20 13:11:57;;;;;;;8.20;3.60;;;18.10;1.00;;;;;;5678203;22;20249;-95
2023/04/20 13:14:24;;;;;;;4.60;3.28;;;18.20;1.00;;;;;;5367876;22;20223;-95
2023/04/20 13:22:03;;;;;;;7.15;3.83;;;18.60;1.00;;;;;;5918365;22;20208;-95
2023/04/20 13:24:32;;;;;;;7.18;3.70;;;18.70;1.00;;;;;;5700376;23;20189;-92
2023/04/20 13:26:58;;;;;;;6.00;3.55;;;18.90;1.00;;;;;;5044693;28;20217;-94
2023/04/20 13:29:26;;;;;;;7.07;3.53;;;19.00;1.00;;;;;;5062362;28;20295;-96
2023/04/20 13:31:53;;;;;;;6.65;3.55;;;19.10;1.00;;;;;;5038376;28;20222;-96
2023/04/20 13:34:20;;;;;;;7.47;3.72;;;19.10;1.00;;;;;;5028521;28;20238;-95
2023/04/20 13:36:47;;;;;;;5.22;3.65;;;19.00;1.00;;;;;;5126435;23;20290;-96
2023/04/20 13:39:14;;;;;;;6.70;3.30;;;18.90;1.00;;;;;;5011108;28;20204;-96
2023/04/20 13:41:44;;;;;;;6.47;3.33;;;18.90;1.00;;;;;;4994409;28;20586;-96
2023/04/20 13:44:15;;;;;;;5.97;3.60;;;19.00;1.00;;;;;;5003482;28;20623;-94
2023/04/20 13:49:21;;;;;;;5.88;3.40;;;19.00;1.00;;;;;;5089359;23;20226;-96
2023/04/20 13:51:48;;;;;;;7.00;3.55;;;19.10;1.00;;;;;;5174888;22;20230;-95
2023/04/20 13:54:15;;;;;;;6.05;3.30;;;19.20;1.00;;;;;;5032667;28;20221;-95
2023/04/20 13:56:42;;;;;;;8.02;3.50;;;19.20;1.00;;;;;;5252602;23;20257;-95
2023/04/20 13:59:10;;;;;;;7.55;3.50;;;19.20;1.00;;;;;;5610896;22;21001;-93
2023/04/20 14:01:37;;;;;;;4.95;3.42;;;19.30;1.00;;;;;;5226532;22;20217;-96
2023/04/20 14:06:39;;;;;;;7.10;3.38;;;19.50;1.00;;;;;;5987707;22;20217;-96